LYBELYTV

Guest
Details From LYBE - Belgrade
To LYTV - Tivat
Flight Number -
Tags generated
Created
Modified
Stats Distance 161 nm / 297 km
Max Altitude 18,400 ft / 5,608 m
Waypoints 3
Social Downloads 24
Likes 0
Share VATSIM

Download

Looking for another format? Having issues loading an existing format? Contact us
Advertisement - Login to hide

Notes

Basic altitude profile: - Ascent Rate: 2500ft/min - Ascent Speed: 250kts - Cruise Altitude: 35000ft - Cruise Speed: 420kts - Descent Rate: 1500ft/min - Descent Speed: 250kts Options: - Use NATs: yes - Use PACOTS: yes - Use low airways: yes - Use high airways: yes

Route

LYBE PESAK LYTV

ID Type Via Altitude Latitude Longitude Leg Dist Tot Dist Heading (true) Name
O LYBE APT - 0 ft / 0 m 44.81843˚ 20.30921˚ - 0 nm - Belgrade
PESAK FIX - 18,400 ft / 5,608 m 43.71861˚ 19.50417˚ 74 nm 74 nm 208° / 207° -
O LYTV APT - 0 ft / 0 m 42.40466˚ 18.72329˚ 86 nm 160 nm 204° / 203° Tivat

Altitude Profile

Advertisement - Login to hide

LYBE

Details ICAO LYBE (BEG)
Name Belgrade
Region Serbia and Montenegro
Timezone Europe/Belgrade (UTC+1.0)
Stats Elevation 335 ft / 102 m (AMSL)
Location 44.818429° 20.309211°
Runways 1
Magnetic Variation 4.671° E

METAR

LYBE 130330Z 31005KT 280V340 CAVOK 08/06 Q1015 NOSIG

Decode

TAF

TAF LYBE 122300Z 1300/1324 18009KT 9999 BKN030 TX13/1300Z TN02/1324Z BECMG 1305/1307 32010KT TEMPO 1310/1319 4000 -RA BR BKN010 BKN027 BECMG 1320/1322 21006KT 3000 BR

Decode

Departure Runways

ID Width Length Bearing (true) Bearing (mag) Surface Threshold Offset Overrun Length
12 148 ft / 45 m 11,138 ft / 3,395 m 122.00° 117.33° Asphalt 1,000 ft / 305 m 0 ft / 0 m
30 148 ft / 45 m 11,138 ft / 3,395 m 302.03° 297.36° Asphalt 1,312 ft / 400 m 0 ft / 0 m

LYTV

Details ICAO LYTV (TIV)
Name Tivat
Region Serbia and Montenegro
Timezone Europe/Podgorica (UTC+1.0)
Stats Elevation 20 ft / 6 m (AMSL)
Location 42.404657° 18.723295°
Runways 1
Magnetic Variation 4.162° E

METAR

LYTV 130330Z 18009G21KT 9999 FEW010 BKN033 OVC070 16/14 Q1019

Decode

TAF

TAF LYTV 122300Z 1300/1324 16008KT 9999 SCT010 BKN027 BKN070 TX16/1212Z TN09/1324Z TEMPO 1300/1318 RA PROB40 TEMPO 1300/1316 18018KT 3000 +RA

Decode

Destination Runways

ID Width Length Bearing (true) Bearing (mag) Surface Threshold Offset Overrun Length
14 148 ft / 45 m 8,206 ft / 2,501 m 139.03° 134.87° Asphalt 300 ft / 91 m 0 ft / 0 m
32 148 ft / 45 m 8,206 ft / 2,501 m 319.04° 314.88° Asphalt 300 ft / 91 m 0 ft / 0 m

Approach Navaids

Runway Type Ident Frequency Range Bearing (true) Bearing (mag) Slope Elevation
32 Localiser TIV 111.30 MHz 50 nm / 93 km 339.00° 334.84° - 56 ft / 17 m (AMSL)
32 DME TIV 111.30 MHz 18 nm / 33 km - - - 49 ft / 15 m (AMSL)

Popular Alternatives